Time;durP1;ratioP1;P1;durP2;ratioP2;P2;SDS_P1;SDS_P2;PMS_P1;PMS_P2;Temp;Humidity;BMP_temperature;BMP_pressure;BME280_temperature;BME280_humidity;BME280_pressure;Samples;Min_cycle;Max_cycle;Signal;HPM_P1;HPM_P2
2024/03/31 00:01:44;;;;;;;7.80;3.50;;;;;;;10.72;100.00;100402.02;111106;1235;75727;-66
2024/03/31 00:04:10;;;;;;;7.10;3.40;;;;;;;10.71;100.00;100399.73;111063;1234;72557;-67
2024/03/31 00:06:37;;;;;;;7.00;3.40;;;;;;;10.70;100.00;100401.59;111027;1234;72899;-67
2024/03/31 00:09:04;;;;;;;6.50;3.40;;;;;;;10.69;100.00;100397.63;110966;1232;61637;-66
2024/03/31 00:11:31;;;;;;;6.20;3.40;;;;;;;10.68;100.00;100398.42;111055;1233;61915;-68
2024/03/31 00:13:58;;;;;;;9.20;4.50;;;;;;;10.67;100.00;100396.39;111058;1233;74682;-66
2024/03/31 00:16:25;;;;;;;9.50;3.80;;;;;;;10.64;100.00;100399.01;111058;1234;73278;-65
2024/03/31 00:18:52;;;;;;;8.40;3.60;;;;;;;10.62;100.00;100402.35;111074;1234;73013;-66
2024/03/31 00:21:20;;;;;;;6.70;3.20;;;;;;;10.59;100.00;100400.70;111077;1234;62032;-67
2024/03/31 00:23:47;;;;;;;8.90;3.60;;;;;;;10.56;100.00;100402.71;111086;1234;62485;-66
2024/03/31 00:26:14;;;;;;;9.90;3.30;;;;;;;10.52;100.00;100407.71;111073;1236;75217;-67
2024/03/31 00:28:44;;;;;;;12.60;3.70;;;;;;;10.49;100.00;100407.69;111063;1234;72346;-66
2024/03/31 00:31:11;;;;;;;9.10;4.00;;;;;;;10.47;100.00;100405.17;111076;1234;72359;-66
2024/03/31 00:33:37;;;;;;;9.70;3.70;;;;;;;10.47;100.00;100402.40;111065;1234;62086;-67
2024/03/31 00:36:05;;;;;;;9.70;4.10;;;;;;;10.46;100.00;100408.58;111032;1234;60635;-67
2024/03/31 00:38:32;;;;;;;9.40;3.70;;;;;;;10.45;100.00;100415.27;111062;1234;75344;-67
2024/03/31 00:40:59;;;;;;;10.00;4.10;;;;;;;10.46;100.00;100415.85;111092;1236;70486;-66
2024/03/31 00:43:26;;;;;;;9.00;3.90;;;;;;;10.46;100.00;100414.46;111079;1234;72361;-66
2024/03/31 00:45:53;;;;;;;10.10;3.60;;;;;;;10.05;100.00;100412.75;111068;1232;61876;-66
2024/03/31 00:48:20;;;;;;;6.80;3.00;;;;;;;9.88;100.00;100413.00;111057;1234;62199;-66
2024/03/31 00:50:47;;;;;;;10.30;3.90;;;;;;;10.22;100.00;100407.36;111015;1234;74031;-66
2024/03/31 00:53:14;;;;;;;8.00;3.40;;;;;;;10.30;100.00;100405.08;110970;1234;71128;-67
2024/03/31 00:55:43;;;;;;;8.90;4.10;;;;;;;10.29;100.00;100410.30;111052;1234;71557;-66
2024/03/31 00:58:10;;;;;;;10.50;4.10;;;;;;;10.28;100.00;100409.29;110871;1235;61668;-67
2024/03/31 01:00:37;;;;;;;6.30;3.70;;;;;;;10.27;100.00;100410.77;110839;1233;61862;-65
2024/03/31 01:03:04;;;;;;;8.20;3.60;;;;;;;10.26;100.00;100410.33;110996;1234;75810;-66
2024/03/31 01:05:31;;;;;;;7.10;3.40;;;;;;;10.26;100.00;100413.00;111088;1235;71380;-66
2024/03/31 01:07:58;;;;;;;8.10;3.80;;;;;;;10.25;100.00;100406.73;111065;1234;72598;-67
2024/03/31 01:10:25;;;;;;;9.90;3.40;;;;;;;10.24;100.00;100411.97;110836;1233;61601;-67
2024/03/31 01:12:52;;;;;;;9.80;4.20;;;;;;;10.25;100.00;100410.95;110949;1233;61889;-68
2024/03/31 01:15:20;;;;;;;10.60;4.40;;;;;;;10.25;100.00;100405.62;111030;1234;74741;-66
2024/03/31 01:17:48;;;;;;;8.30;4.20;;;;;;;10.26;100.00;100405.85;111024;1233;73252;-67
2024/03/31 01:20:15;;;;;;;10.20;4.60;;;;;;;10.27;100.00;100409.08;111037;1234;72794;-67
2024/03/31 01:22:42;;;;;;;10.80;4.50;;;;;;;10.29;100.00;100407.37;110381;1233;381460;-67
2024/03/31 01:25:09;;;;;;;8.90;3.70;;;;;;;10.28;100.00;100408.00;111057;1235;62096;-66
2024/03/31 01:27:36;;;;;;;9.70;4.10;;;;;;;10.27;100.00;100406.61;111040;1236;75489;-68
2024/03/31 01:30:04;;;;;;;8.10;4.20;;;;;;;10.25;100.00;100405.51;111059;1236;71821;-70
2024/03/31 01:32:30;;;;;;;9.60;4.60;;;;;;;10.28;100.00;100416.38;110841;1236;72700;-68
2024/03/31 01:34:57;;;;;;;10.50;4.20;;;;;;;10.63;100.00;100411.92;111009;1234;61853;-68
2024/03/31 01:37:24;;;;;;;8.70;4.40;;;;;;;10.73;100.00;100413.68;110985;1233;60610;-67
2024/03/31 01:39:52;;;;;;;13.30;4.50;;;;;;;10.77;100.00;100409.95;110977;1235;74864;-66
2024/03/31 01:42:18;;;;;;;8.00;4.50;;;;;;;10.80;100.00;100410.54;111044;1233;71539;-65
2024/03/31 01:44:47;;;;;;;10.70;4.70;;;;;;;10.49;100.00;100416.77;111022;1234;71395;-66
2024/03/31 01:47:13;;;;;;;12.70;4.90;;;;;;;10.33;100.00;100415.79;110856;1234;62040;-66
2024/03/31 01:49:40;;;;;;;10.70;4.20;;;;;;;10.70;100.00;100415.11;111021;1234;61871;-66
2024/03/31 01:52:08;;;;;;;9.40;3.90;;;;;;;10.59;100.00;100413.29;111018;1236;75180;-66
2024/03/31 01:54:37;;;;;;;7.50;3.90;;;;;;;10.27;100.00;100418.09;111029;1234;73029;-66
2024/03/31 01:57:05;;;;;;;9.20;4.20;;;;;;;10.23;100.00;100419.59;111085;1234;71663;-66
2024/03/31 01:59:32;;;;;;;7.10;3.80;;;;;;;10.64;100.00;100417.38;110767;1234;61846;-66
2024/03/31 02:01:58;;;;;;;8.20;4.30;;;;;;;10.47;100.00;100416.86;111096;1234;61869;-66
2024/03/31 02:04:25;;;;;;;9.50;4.00;;;;;;;10.25;100.00;100423.56;110986;1233;75185;-66
2024/03/31 02:06:52;;;;;;;10.00;4.20;;;;;;;10.23;100.00;100425.61;111007;1237;73587;-66
2024/03/31 02:09:19;;;;;;;9.30;3.90;;;;;;;10.22;100.00;100429.72;110957;1234;73085;-67
2024/03/31 02:11:46;;;;;;;9.00;4.10;;;;;;;10.21;100.00;100431.59;110863;1232;61159;-66
2024/03/31 02:14:13;;;;;;;9.50;4.00;;;;;;;10.20;100.00;100431.30;110968;1234;61918;-65
2024/03/31 02:16:41;;;;;;;10.10;4.20;;;;;;;10.19;100.00;100429.85;111045;1236;75283;-67
2024/03/31 02:19:10;;;;;;;8.80;3.70;;;;;;;10.18;100.00;100425.96;111064;1234;73079;-66
2024/03/31 02:21:39;;;;;;;8.30;3.60;;;;;;;10.16;100.00;100429.46;111007;1234;70364;-66
2024/03/31 02:24:06;;;;;;;9.80;4.10;;;;;;;10.13;100.00;100433.29;111041;1233;62023;-66
2024/03/31 02:26:35;;;;;;;8.30;3.90;;;;;;;10.10;100.00;100431.41;110985;1234;61840;-66
2024/03/31 02:29:05;;;;;;;9.20;4.50;;;;;;;10.09;100.00;100433.05;111068;1234;74288;-67
2024/03/31 02:31:33;;;;;;;9.90;4.00;;;;;;;10.07;100.00;100436.20;111039;1236;70706;-67
2024/03/31 02:34:02;;;;;;;8.00;3.70;;;;;;;10.05;100.00;100433.88;111030;1234;73245;-66
2024/03/31 02:36:29;;;;;;;8.80;4.20;;;;;;;10.03;100.00;100431.73;111013;1233;61946;-66
2024/03/31 02:38:58;;;;;;;10.60;4.00;;;;;;;10.00;100.00;100428.83;110978;1234;61991;-66
2024/03/31 02:41:27;;;;;;;7.30;3.70;;;;;;;9.97;100.00;100427.27;110916;1233;75302;-66
2024/03/31 02:43:53;;;;;;;8.00;4.00;;;;;;;9.95;100.00;100430.77;110993;1233;71372;-66
2024/03/31 02:46:20;;;;;;;9.60;3.50;;;;;;;9.94;100.00;100432.89;111010;1234;72349;-66
2024/03/31 02:48:47;;;;;;;8.40;4.00;;;;;;;9.93;100.00;100429.09;110815;1233;62170;-65
2024/03/31 02:51:14;;;;;;;7.70;3.80;;;;;;;9.91;100.00;100430.63;111047;1234;62023;-65
2024/03/31 02:53:41;;;;;;;10.40;4.10;;;;;;;9.86;100.00;100431.13;111036;1234;73960;-66
2024/03/31 02:56:08;;;;;;;11.30;4.10;;;;;;;9.84;100.00;100431.80;110843;1239;72446;-70
2024/03/31 02:58:35;;;;;;;6.30;4.00;;;;;;;9.81;100.00;100434.07;110952;1236;73272;-66
2024/03/31 03:01:05;;;;;;;13.50;4.40;;;;;;;9.78;100.00;100434.00;110813;1236;62090;-66
2024/03/31 03:03:32;;;;;;;9.00;4.10;;;;;;;9.75;100.00;100442.02;111075;1234;61892;-67
2024/03/31 03:06:00;;;;;;;8.20;3.70;;;;;;;9.69;100.00;100438.45;111031;1235;75388;-66
2024/03/31 03:08:27;;;;;;;10.30;3.90;;;;;;;9.66;100.00;100439.11;111064;1235;72698;-66
2024/03/31 03:10:57;;;;;;;8.00;4.10;;;;;;;9.63;100.00;100440.21;110975;1233;73227;-65
2024/03/31 03:13:24;;;;;;;9.80;4.20;;;;;;;9.59;100.00;100444.66;110948;1234;62315;-66
2024/03/31 03:15:53;;;;;;;9.90;4.40;;;;;;;9.56;100.00;100446.17;111012;1232;61914;-66
2024/03/31 03:18:20;;;;;;;9.20;4.10;;;;;;;9.53;100.00;100444.23;111063;1236;75465;-66
2024/03/31 03:20:50;;;;;;;9.90;3.90;;;;;;;9.51;100.00;100449.11;111010;1234;71981;-67
2024/03/31 03:23:16;;;;;;;10.00;4.20;;;;;;;9.49;100.00;100451.55;110966;1234;72751;-67
2024/03/31 03:25:58;;;;;;;10.30;3.80;;;;;;;9.47;100.00;100450.34;110967;1234;62069;-67
2024/03/31 03:28:25;;;;;;;9.50;3.80;;;;;;;9.45;100.00;100455.23;110805;1234;61914;-66
2024/03/31 03:30:53;;;;;;;9.50;3.70;;;;;;;9.43;100.00;100456.98;110818;1239;75378;-65
2024/03/31 03:33:22;;;;;;;10.60;4.20;;;;;;;9.40;100.00;100463.93;111012;1234;73678;-67
2024/03/31 03:35:55;;;;;;;7.80;3.70;;;;;;;9.36;100.00;100464.16;110978;1234;72985;-66
2024/03/31 03:38:22;;;;;;;10.80;3.70;;;;;;;9.34;100.00;100463.92;110946;1234;62055;-67
2024/03/31 03:40:52;;;;;;;8.00;4.10;;;;;;;9.35;100.00;100461.76;110958;1235;61898;-67
2024/03/31 03:43:19;;;;;;;8.90;4.10;;;;;;;9.34;100.00;100461.52;111037;1235;75792;-67
2024/03/31 03:45:50;;;;;;;8.10;4.00;;;;;;;9.34;100.00;100461.47;110858;1235;71125;-67
2024/03/31 03:48:17;;;;;;;8.10;4.30;;;;;;;9.33;100.00;100463.70;111050;1237;70023;-67
2024/03/31 03:50:44;;;;;;;8.40;4.10;;;;;;;9.34;100.00;100466.15;110975;1234;61899;-67
2024/03/31 03:53:14;;;;;;;8.00;4.10;;;;;;;9.33;100.00;100468.60;111026;1237;61888;-65
2024/03/31 03:55:41;;;;;;;10.10;3.90;;;;;;;9.32;100.00;100469.09;110816;1234;75203;-65
2024/03/31 03:58:09;;;;;;;8.50;3.90;;;;;;;9.32;100.00;100466.58;110962;1234;73159;-67
2024/03/31 04:00:40;;;;;;;10.60;3.70;;;;;;;9.31;100.00;100467.67;110937;1235;71056;-66
2024/03/31 04:03:07;;;;;;;7.30;3.90;;;;;;;9.30;100.00;100471.34;110960;1237;61992;-66
2024/03/31 04:05:34;;;;;;;5.70;3.30;;;;;;;9.29;100.00;100469.70;110982;1235;61886;-66
2024/03/31 04:08:01;;;;;;;9.60;4.30;;;;;;;9.29;100.00;100468.20;111034;1236;74066;-66
2024/03/31 04:10:30;;;;;;;9.00;4.20;;;;;;;9.28;100.00;100469.23;111007;1234;73030;-66
2024/03/31 04:12:57;;;;;;;7.40;3.90;;;;;;;9.26;100.00;100469.23;110888;1236;73128;-66
2024/03/31 04:15:24;;;;;;;9.20;4.40;;;;;;;9.26;100.00;100468.43;110987;1235;61763;-65
2024/03/31 04:17:51;;;;;;;8.70;4.40;;;;;;;9.28;100.00;100468.01;111015;1235;61884;-66
2024/03/31 04:20:18;;;;;;;11.00;4.60;;;;;;;9.29;100.00;100467.29;111055;1236;75169;-66
2024/03/31 04:22:45;;;;;;;8.80;4.20;;;;;;;9.31;100.00;100468.54;111042;1237;72572;-66
2024/03/31 04:25:12;;;;;;;10.20;4.80;;;;;;;9.34;100.00;100473.90;110985;1235;71993;-68
2024/03/31 04:27:39;;;;;;;11.50;4.60;;;;;;;9.39;100.00;100475.18;110880;1235;62040;-67
2024/03/31 04:30:07;;;;;;;9.00;4.60;;;;;;;9.45;100.00;100473.75;111007;1235;62119;-67
2024/03/31 04:32:34;;;;;;;13.30;4.80;;;;;;;9.50;100.00;100470.55;110969;1237;75357;-67
2024/03/31 04:35:01;;;;;;;8.90;4.40;;;;;;;9.56;100.00;100468.56;110972;1236;71424;-66
2024/03/31 04:37:28;;;;;;;9.70;4.50;;;;;;;9.62;100.00;100469.27;111014;1235;73110;-66
2024/03/31 04:39:55;;;;;;;10.80;4.20;;;;;;;9.69;100.00;100474.09;110990;1235;62525;-67
2024/03/31 04:42:22;;;;;;;9.30;4.50;;;;;;;9.74;100.00;100469.59;110975;1235;60757;-67
2024/03/31 04:44:51;;;;;;;8.80;4.40;;;;;;;9.80;100.00;100468.11;110974;1235;73852;-66
2024/03/31 04:47:19;;;;;;;9.50;4.60;;;;;;;9.87;100.00;100464.86;111006;1235;71770;-66
2024/03/31 04:49:47;;;;;;;7.10;4.00;;;;;;;9.93;100.00;100467.79;110995;1237;72409;-67
2024/03/31 04:52:14;;;;;;;9.60;4.50;;;;;;;10.00;100.00;100472.96;110860;1235;61898;-65
2024/03/31 04:54:43;;;;;;;9.10;4.60;;;;;;;10.10;100.00;100474.95;111056;1233;61879;-66
2024/03/31 04:57:10;;;;;;;13.60;5.10;;;;;;;10.20;100.00;100477.00;111050;1233;73127;-66
2024/03/31 04:59:37;;;;;;;10.60;5.10;;;;;;;10.31;100.00;100476.78;110871;1239;71081;-66
2024/03/31 05:02:04;;;;;;;12.50;4.70;;;;;;;10.42;100.00;100482.48;110993;1236;72303;-67
2024/03/31 05:04:32;;;;;;;11.50;4.50;;;;;;;10.50;100.00;100483.59;110989;1232;62071;-66
2024/03/31 05:06:59;;;;;;;12.20;4.60;;;;;;;10.62;100.00;100483.66;111029;1233;61918;-66
2024/03/31 05:09:26;;;;;;;9.40;4.60;;;;;;;10.75;100.00;100481.00;110985;1235;74169;-65
2024/03/31 05:11:53;;;;;;;10.70;5.00;;;;;;;10.87;100.00;100485.01;110863;1235;73216;-66
2024/03/31 05:14:20;;;;;;;12.10;5.40;;;;;;;10.99;100.00;100481.39;110989;1235;72822;-66
2024/03/31 05:16:50;;;;;;;8.70;4.60;;;;;;;11.13;100.00;100482.88;110997;1235;61920;-66
2024/03/31 05:19:18;;;;;;;9.30;5.20;;;;;;;11.25;100.00;100482.11;110814;1233;62042;-66
2024/03/31 05:21:45;;;;;;;10.10;4.40;;;;;;;11.39;100.00;100481.45;111064;1233;75413;-66
2024/03/31 05:24:12;;;;;;;12.10;4.70;;;;;;;11.50;100.00;100482.82;111013;1235;72335;-66
2024/03/31 05:26:38;;;;;;;12.50;5.40;;;;;;;11.62;100.00;100484.70;110921;1234;73177;-66
2024/03/31 05:29:06;;;;;;;13.90;5.70;;;;;;;11.74;100.00;100479.75;110953;1234;62064;-66
2024/03/31 05:31:34;;;;;;;11.60;5.20;;;;;;;11.85;100.00;100476.62;110988;1235;61846;-65
2024/03/31 05:34:08;;;;;;;10.50;4.80;;;;;;;11.98;100.00;100477.05;110999;1235;75958;-66
2024/03/31 05:36:41;;;;;;;11.10;5.00;;;;;;;12.11;100.00;100474.80;111021;1235;72754;-66
2024/03/31 05:39:08;;;;;;;11.70;5.50;;;;;;;12.24;100.00;100477.80;110846;1235;72341;-67
2024/03/31 05:41:35;;;;;;;11.60;5.00;;;;;;;12.36;100.00;100479.27;111002;1235;61339;-66
2024/03/31 05:44:02;;;;;;;10.80;4.70;;;;;;;12.49;100.00;100478.88;110965;1235;62151;-68
2024/03/31 05:46:30;;;;;;;13.70;5.80;;;;;;;12.61;100.00;100480.52;110997;1234;75956;-66
2024/03/31 05:48:58;;;;;;;12.10;5.70;;;;;;;12.72;100.00;100477.05;110988;1235;73076;-67
2024/03/31 05:51:30;;;;;;;12.40;5.50;;;;;;;12.84;100.00;100473.04;111015;1237;72696;-66
2024/03/31 05:53:59;;;;;;;12.10;5.10;;;;;;;12.98;100.00;100477.02;111045;1235;62045;-67
2024/03/31 05:56:27;;;;;;;13.40;5.20;;;;;;;13.12;100.00;100478.77;111037;1235;62134;-66
2024/03/31 05:58:53;;;;;;;13.40;5.50;;;;;;;13.25;100.00;100479.63;110948;1235;75315;-66
2024/03/31 06:01:21;;;;;;;14.60;5.90;;;;;;;13.37;100.00;100474.15;111022;1235;72387;-66
2024/03/31 06:03:50;;;;;;;14.40;6.10;;;;;;;13.48;100.00;100470.17;111006;1235;73364;-66
2024/03/31 06:06:17;;;;;;;13.50;6.80;;;;;;;13.60;100.00;100470.15;110999;1233;61722;-67
2024/03/31 06:08:45;;;;;;;20.80;7.20;;;;;;;13.74;100.00;100472.08;111026;1235;62327;-67
2024/03/31 06:11:11;;;;;;;13.90;6.30;;;;;;;13.87;100.00;100468.29;110878;1235;75140;-67
2024/03/31 06:13:38;;;;;;;16.90;6.80;;;;;;;14.01;100.00;100470.48;111040;1235;71988;-66
2024/03/31 06:16:06;;;;;;;13.80;5.90;;;;;;;14.10;100.00;100471.20;111017;1235;72309;-66
2024/03/31 06:18:32;;;;;;;15.50;5.90;;;;;;;14.19;100.00;100475.53;110959;1233;61993;-66
2024/03/31 06:21:07;;;;;;;12.80;5.10;;;;;;;14.28;100.00;100478.20;110964;1235;60173;-66
2024/03/31 06:23:35;;;;;;;12.80;5.50;;;;;;;14.34;100.00;100477.98;110961;1235;73143;-66
2024/03/31 06:26:02;;;;;;;12.80;5.20;;;;;;;14.41;100.00;100477.31;110927;1235;72580;-66
2024/03/31 06:28:30;;;;;;;14.80;4.90;;;;;;;14.51;100.00;100478.57;110843;1238;72372;-66
2024/03/31 06:30:57;;;;;;;14.00;5.20;;;;;;;14.61;100.00;100476.60;110828;1235;61943;-66
2024/03/31 06:33:24;;;;;;;15.90;5.10;;;;;;;14.74;100.00;100475.10;110959;1235;62165;-66
2024/03/31 06:35:51;;;;;;;15.90;5.30;;;;;;;14.86;100.00;100470.61;111030;1233;75077;-65
2024/03/31 06:38:18;;;;;;;14.70;4.90;;;;;;;14.99;100.00;100467.81;111030;1235;72155;-67
2024/03/31 06:40:45;;;;;;;12.90;5.40;;;;;;;15.13;100.00;100471.94;111007;1236;72878;-65
2024/03/31 06:43:12;;;;;;;13.30;5.50;;;;;;;15.27;100.00;100470.40;110976;1235;62006;-66
2024/03/31 06:45:39;;;;;;;13.10;4.80;;;;;;;15.39;100.00;100469.88;110814;1235;61937;-66
2024/03/31 06:48:07;;;;;;;11.50;4.70;;;;;;;15.50;100.00;100464.66;110966;1236;75867;-65
2024/03/31 06:50:33;;;;;;;16.40;5.50;;;;;;;15.61;100.00;100458.45;110844;1235;72526;-66
2024/03/31 06:53:00;;;;;;;15.60;5.20;;;;;;;15.72;100.00;100456.16;111045;1234;71366;-66
2024/03/31 06:55:27;;;;;;;13.40;4.80;;;;;;;15.85;100.00;100456.60;111023;1236;63505;-65
2024/03/31 06:57:54;;;;;;;12.30;4.80;;;;;;;15.98;100.00;100454.66;111013;1233;60898;-66
2024/03/31 07:00:21;;;;;;;12.40;4.70;;;;;;;16.11;100.00;100451.95;110814;1234;75884;-67
2024/03/31 07:02:49;;;;;;;15.20;5.50;;;;;;;16.25;100.00;100449.83;111039;1235;73110;-69
2024/03/31 07:05:16;;;;;;;15.90;5.10;;;;;;;16.37;100.00;100449.71;110932;1235;71569;-67
2024/03/31 07:07:43;;;;;;;12.30;4.70;;;;;;;16.48;100.00;100449.45;110998;1235;62010;-66
2024/03/31 07:10:10;;;;;;;14.50;4.50;;;;;;;16.58;100.00;100452.21;111020;1233;61907;-67
2024/03/31 07:12:37;;;;;;;12.40;4.60;;;;;;;16.71;98.89;100455.77;110996;1234;75337;-66
2024/03/31 07:15:05;;;;;;;16.00;5.40;;;;;;;16.81;96.82;100454.50;110980;1234;71267;-67
2024/03/31 07:17:34;;;;;;;17.20;5.60;;;;;;;16.94;94.38;100455.53;111027;1233;71079;-67
2024/03/31 07:20:03;;;;;;;13.80;4.40;;;;;;;17.06;92.23;100446.20;111032;1232;62025;-67
2024/03/31 07:22:30;;;;;;;15.80;4.60;;;;;;;17.18;90.62;100446.75;110986;1234;61988;-66
2024/03/31 07:24:57;;;;;;;14.70;5.30;;;;;;;17.31;89.07;100444.04;110917;1233;73852;-67
2024/03/31 07:27:24;;;;;;;15.10;4.70;;;;;;;17.42;86.84;100443.30;110822;1235;71156;-66
2024/03/31 07:29:51;;;;;;;14.30;5.00;;;;;;;17.51;84.72;100442.55;111003;1233;72557;-67
2024/03/31 07:32:19;;;;;;;18.10;5.60;;;;;;;17.60;83.22;100440.02;110822;1235;61924;-67
2024/03/31 07:34:46;;;;;;;16.10;4.50;;;;;;;17.70;82.30;100439.14;111026;1235;62667;-67
2024/03/31 07:37:13;;;;;;;13.00;4.30;;;;;;;17.80;81.32;100438.10;110995;1235;75893;-67
2024/03/31 07:39:40;;;;;;;13.40;4.50;;;;;;;17.92;80.31;100437.70;110956;1235;73192;-65
2024/03/31 07:42:07;;;;;;;13.40;4.20;;;;;;;18.03;79.36;100433.58;111009;1233;73269;-66
2024/03/31 07:44:36;;;;;;;17.70;5.30;;;;;;;18.14;78.64;100435.83;110947;1235;61989;-66
2024/03/31 07:47:04;;;;;;;17.00;4.80;;;;;;;18.26;77.86;100439.58;111045;1235;61931;-67
2024/03/31 07:49:31;;;;;;;12.40;4.40;;;;;;;18.37;76.73;100440.73;111018;1232;75427;-67
2024/03/31 07:51:58;;;;;;;16.50;4.90;;;;;;;18.47;75.43;100446.79;111045;1235;71477;-65
2024/03/31 07:54:25;;;;;;;13.20;4.70;;;;;;;18.57;74.74;100452.20;110996;1232;72319;-67
2024/03/31 07:56:53;;;;;;;14.30;4.30;;;;;;;18.67;73.70;100448.80;111002;1235;61907;-67
2024/03/31 07:59:20;;;;;;;13.10;4.60;;;;;;;18.73;72.68;100443.27;110996;1235;60769;-67
2024/03/31 08:01:46;;;;;;;16.50;4.60;;;;;;;18.82;72.74;100444.98;111070;1235;73873;-66
2024/03/31 08:04:15;;;;;;;12.90;4.60;;;;;;;18.93;71.94;100449.13;111024;1234;72855;-68
2024/03/31 08:06:42;;;;;;;16.40;4.70;;;;;;;19.02;71.47;100445.89;111045;1236;73664;-68
2024/03/31 08:09:09;;;;;;;18.40;5.50;;;;;;;19.12;70.93;100440.14;110968;1234;62018;-68
2024/03/31 08:11:37;;;;;;;12.10;4.50;;;;;;;19.22;69.85;100440.05;110976;1235;61891;-66
2024/03/31 08:14:04;;;;;;;14.20;4.90;;;;;;;19.31;69.85;100436.64;111065;1235;75618;-67
2024/03/31 08:16:31;;;;;;;14.80;4.90;;;;;;;19.40;69.53;100436.13;111014;1236;73055;-66
2024/03/31 08:19:01;;;;;;;15.10;4.50;;;;;;;19.52;68.79;100438.50;110991;1234;73091;-66
2024/03/31 08:21:28;;;;;;;14.40;5.30;;;;;;;19.65;68.58;100442.42;111012;1236;61976;-68
2024/03/31 08:23:54;;;;;;;14.10;4.70;;;;;;;19.74;67.42;100441.34;111046;1235;61873;-67
2024/03/31 08:26:21;;;;;;;15.00;4.60;;;;;;;19.79;66.63;100440.95;111067;1233;74962;-66
2024/03/31 08:28:49;;;;;;;14.90;4.80;;;;;;;19.89;66.51;100442.40;111021;1234;72816;-67
2024/03/31 08:31:16;;;;;;;14.30;4.80;;;;;;;20.02;66.15;100440.19;111023;1235;71296;-68
2024/03/31 08:33:46;;;;;;;12.40;5.40;;;;;;;20.11;65.05;100431.02;110905;1235;61901;-67
2024/03/31 08:36:12;;;;;;;15.30;4.60;;;;;;;20.22;64.62;100433.38;111046;1233;61911;-66
2024/03/31 08:38:40;;;;;;;13.40;4.50;;;;;;;20.32;64.27;100431.23;111008;1235;76683;-67
2024/03/31 08:41:08;;;;;;;12.40;4.50;;;;;;;20.40;63.39;100426.38;111005;1235;73743;-66
2024/03/31 08:43:39;;;;;;;13.40;4.40;;;;;;;20.49;63.53;100421.15;110986;1233;72617;-67
2024/03/31 08:46:06;;;;;;;12.40;4.30;;;;;;;20.60;63.85;100420.28;110892;1235;61924;-66
2024/03/31 08:48:36;;;;;;;12.50;4.20;;;;;;;20.72;63.80;100417.43;111007;1233;61978;-67
2024/03/31 08:51:06;;;;;;;16.10;5.00;;;;;;;20.85;63.09;100416.52;110986;1234;75402;-67
2024/03/31 08:53:33;;;;;;;12.60;4.70;;;;;;;20.97;62.63;100417.21;110969;1235;72507;-68
2024/03/31 08:56:00;;;;;;;15.30;4.90;;;;;;;21.07;61.71;100418.29;111048;1236;72467;-68
2024/03/31 08:58:27;;;;;;;14.00;4.60;;;;;;;21.16;60.65;100422.98;111028;1233;62003;-66
2024/03/31 09:00:54;;;;;;;13.40;4.70;;;;;;;21.21;60.31;100420.67;110990;1233;61897;-67
2024/03/31 09:03:24;;;;;;;14.50;4.60;;;;;;;21.25;60.04;100421.05;110976;1233;75867;-68
2024/03/31 09:05:51;;;;;;;11.80;4.20;;;;;;;21.30;59.54;100418.98;110966;1235;73999;-67
2024/03/31 09:08:18;;;;;;;11.80;4.50;;;;;;;21.34;58.99;100417.95;111033;1235;72909;-68
2024/03/31 09:11:07;;;;;;;13.60;4.70;;;;;;;21.36;58.57;100418.85;110784;1233;61948;-67
2024/03/31 09:13:37;;;;;;;14.60;4.20;;;;;;;21.40;58.78;100416.10;111029;1233;61921;-67
2024/03/31 09:16:05;;;;;;;12.70;4.50;;;;;;;21.45;58.40;100415.83;111052;1237;75194;-67
2024/03/31 09:18:32;;;;;;;13.90;4.80;;;;;;;21.52;58.84;100413.05;111028;1234;72682;-67
2024/03/31 09:20:59;;;;;;;12.90;4.10;;;;;;;21.62;58.60;100419.23;111048;1234;72679;-68
2024/03/31 09:23:26;;;;;;;12.00;4.30;;;;;;;21.71;58.35;100415.96;110703;1236;61889;-67
2024/03/31 09:25:53;;;;;;;11.70;4.30;;;;;;;21.79;57.37;100414.77;111031;1237;61902;-68
2024/03/31 09:28:20;;;;;;;12.10;4.30;;;;;;;21.83;57.48;100412.40;111014;1232;75200;-68
2024/03/31 09:30:50;;;;;;;17.30;5.00;;;;;;;21.91;57.08;100413.57;111028;1236;71282;-68
2024/03/31 09:33:17;;;;;;;15.10;4.60;;;;;;;21.98;56.94;100412.71;110963;1233;72652;-67
2024/03/31 09:35:45;;;;;;;14.50;4.70;;;;;;;22.09;56.53;100412.73;110941;1234;62076;-68
2024/03/31 09:38:12;;;;;;;14.80;4.90;;;;;;;22.18;55.88;100411.77;111006;1235;61904;-69
2024/03/31 09:40:40;;;;;;;11.00;4.10;;;;;;;22.26;55.44;100409.28;110994;1237;76482;-67
2024/03/31 09:43:07;;;;;;;15.00;4.20;;;;;;;22.33;54.50;100409.42;110962;1235;72571;-66
2024/03/31 09:45:35;;;;;;;13.70;4.50;;;;;;;22.36;54.19;100405.73;110825;1238;72560;-66
2024/03/31 09:48:06;;;;;;;12.90;4.30;;;;;;;22.40;54.04;100401.64;110973;1234;61908;-67
2024/03/31 09:50:56;;;;;;;14.90;4.60;;;;;;;22.45;53.51;100400.41;111045;1233;61872;-66
2024/03/31 09:53:23;;;;;;;13.80;3.90;;;;;;;22.52;53.21;100400.33;111014;1237;75316;-68
2024/03/31 09:55:50;;;;;;;16.10;4.80;;;;;;;22.59;52.82;100396.80;110871;1237;72437;-66
2024/03/31 09:58:17;;;;;;;16.10;3.90;;;;;;;22.65;52.70;100393.89;110852;1238;72372;-67
2024/03/31 10:00:44;;;;;;;13.80;4.10;;;;;;;22.74;52.29;100395.23;110862;1235;62058;-66
2024/03/31 10:03:27;;;;;;;13.60;4.60;;;;;;;22.79;51.73;100394.61;110873;1234;61872;-68
2024/03/31 10:05:55;;;;;;;15.70;4.40;;;;;;;22.84;51.73;100392.91;111033;1234;75355;-67
2024/03/31 10:08:26;;;;;;;12.70;3.90;;;;;;;22.93;51.78;100397.38;110978;1233;73920;-67
2024/03/31 10:10:53;;;;;;;13.00;4.20;;;;;;;23.01;51.40;100393.27;110865;1237;73773;-67
2024/03/31 10:13:20;;;;;;;15.20;4.20;;;;;;;23.07;50.92;100389.86;110921;1235;61885;-67
2024/03/31 10:15:48;;;;;;;18.20;4.80;;;;;;;23.11;50.38;100386.71;110763;1235;61894;-67
2024/03/31 10:18:15;;;;;;;17.10;4.60;;;;;;;23.15;50.62;100383.73;110893;1235;74704;-67
2024/03/31 10:20:43;;;;;;;15.10;4.90;;;;;;;23.23;50.72;100379.26;110690;1233;72475;-69
2024/03/31 10:23:10;;;;;;;17.60;5.80;;;;;;;23.29;50.39;100377.58;110861;1235;74005;-68
2024/03/31 10:25:37;;;;;;;20.50;7.00;;;;;;;23.34;50.03;100376.68;110850;1232;62026;-67
2024/03/31 10:28:04;;;;;;;16.40;6.30;;;;;;;23.38;50.04;100374.92;110978;1234;62110;-67
2024/03/31 10:30:31;;;;;;;20.50;6.80;;;;;;;23.42;49.94;100371.77;110941;1236;76408;-68
2024/03/31 10:32:58;;;;;;;20.30;6.40;;;;;;;23.47;49.77;100367.48;111034;1234;73889;-68
2024/03/31 10:35:25;;;;;;;15.00;5.00;;;;;;;23.52;49.77;100358.73;110644;1234;72148;-69
2024/03/31 10:37:53;;;;;;;14.10;4.90;;;;;;;23.57;49.84;100357.89;110833;1233;62023;-66
2024/03/31 10:40:25;;;;;;;15.50;4.60;;;;;;;23.62;49.89;100353.53;111004;1234;62023;-68
2024/03/31 10:42:55;;;;;;;11.90;4.30;;;;;;;23.70;49.78;100349.09;111015;1237;75170;-67
2024/03/31 10:45:24;;;;;;;14.80;4.30;;;;;;;23.77;49.44;100341.40;111021;1234;72450;-68
2024/03/31 10:47:54;;;;;;;15.20;5.00;;;;;;;23.83;49.26;100343.66;110891;1234;72701;-69
2024/03/31 10:50:25;;;;;;;18.60;4.80;;;;;;;23.89;49.32;100345.27;111073;1233;62020;-68
2024/03/31 10:52:52;;;;;;;16.60;4.50;;;;;;;23.96;49.29;100343.05;110911;1233;61921;-67
2024/03/31 10:55:20;;;;;;;13.40;4.60;;;;;;;24.03;49.14;100337.83;111000;1234;74257;-67
2024/03/31 10:57:56;;;;;;;14.80;4.60;;;;;;;24.10;48.85;100335.34;111055;1237;72747;-68
2024/03/31 11:00:24;;;;;;;15.50;4.50;;;;;;;24.17;48.53;100333.30;111001;1234;71323;-69
2024/03/31 11:02:52;;;;;;;12.70;4.40;;;;;;;24.22;47.98;100329.70;111008;1234;62025;-70
2024/03/31 11:05:20;;;;;;;11.80;3.80;;;;;;;24.25;47.73;100324.16;111071;1233;62084;-68
2024/03/31 11:07:48;;;;;;;13.70;4.50;;;;;;;24.29;47.76;100319.17;111035;1236;75623;-68
2024/03/31 11:10:19;;;;;;;16.60;4.10;;;;;;;24.33;47.54;100314.52;111032;1234;72690;-69
2024/03/31 11:12:46;;;;;;;12.30;3.70;;;;;;;24.35;46.94;100312.39;110870;1233;72312;-69